sensor_id;sensor_type;location;lat;lon;timestamp;temperature;humidity
997;DHT22;487;50.126;8.698;2023-02-15T00:02:04;4.40;99.90
997;DHT22;487;50.126;8.698;2023-02-15T00:04:32;4.40;99.90
997;DHT22;487;50.126;8.698;2023-02-15T00:07:18;4.40;99.90
997;DHT22;487;50.126;8.698;2023-02-15T00:09:46;4.40;99.90
997;DHT22;487;50.126;8.698;2023-02-15T00:12:15;4.30;99.90
997;DHT22;487;50.126;8.698;2023-02-15T00:14:45;4.40;99.90
997;DHT22;487;50.126;8.698;2023-02-15T00:17:12;4.30;99.90
997;DHT22;487;50.126;8.698;2023-02-15T00:19:40;4.30;99.90
997;DHT22;487;50.126;8.698;2023-02-15T00:22:08;4.30;99.90
997;DHT22;487;50.126;8.698;2023-02-15T00:24:36;4.30;99.90
997;DHT22;487;50.126;8.698;2023-02-15T00:27:04;4.20;99.90
997;DHT22;487;50.126;8.698;2023-02-15T00:29:32;4.20;99.90
997;DHT22;487;50.126;8.698;2023-02-15T00:32:01;4.30;99.90
997;DHT22;487;50.126;8.698;2023-02-15T00:34:29;4.30;99.90
997;DHT22;487;50.126;8.698;2023-02-15T00:36:57;4.30;99.90
997;DHT22;487;50.126;8.698;2023-02-15T00:39:24;4.20;99.90
997;DHT22;487;50.126;8.698;2023-02-15T00:41:53;4.20;99.90
997;DHT22;487;50.126;8.698;2023-02-15T00:44:21;4.20;99.90
997;DHT22;487;50.126;8.698;2023-02-15T00:46:49;4.30;99.90
997;DHT22;487;50.126;8.698;2023-02-15T00:49:18;4.30;99.90
997;DHT22;487;50.126;8.698;2023-02-15T00:51:46;4.30;99.90
997;DHT22;487;50.126;8.698;2023-02-15T00:54:14;4.30;99.90
997;DHT22;487;50.126;8.698;2023-02-15T00:56:41;4.30;99.90
997;DHT22;487;50.126;8.698;2023-02-15T00:59:09;4.40;99.90
997;DHT22;487;50.126;8.698;2023-02-15T05:01:21;4.20;99.90
997;DHT22;487;50.126;8.698;2023-02-15T05:03:49;4.20;99.90
997;DHT22;487;50.126;8.698;2023-02-15T05:06:17;4.10;99.90
997;DHT22;487;50.126;8.698;2023-02-15T05:08:44;4.00;99.90
997;DHT22;487;50.126;8.698;2023-02-15T05:11:13;4.00;99.90
997;DHT22;487;50.126;8.698;2023-02-15T05:13:41;4.00;99.90
997;DHT22;487;50.126;8.698;2023-02-15T05:16:08;3.90;99.90
997;DHT22;487;50.126;8.698;2023-02-15T05:18:38;4.00;99.90
997;DHT22;487;50.126;8.698;2023-02-15T05:21:05;4.00;99.90
997;DHT22;487;50.126;8.698;2023-02-15T05:23:33;4.00;99.90
997;DHT22;487;50.126;8.698;2023-02-15T05:26:01;3.90;99.90
997;DHT22;487;50.126;8.698;2023-02-15T05:28:46;3.90;99.90
997;DHT22;487;50.126;8.698;2023-02-15T05:33:45;3.90;99.90
997;DHT22;487;50.126;8.698;2023-02-15T05:36:14;4.00;99.90
997;DHT22;487;50.126;8.698;2023-02-15T05:38:41;4.00;99.90
997;DHT22;487;50.126;8.698;2023-02-15T05:41:11;4.00;99.90
997;DHT22;487;50.126;8.698;2023-02-15T05:43:38;4.00;99.90
997;DHT22;487;50.126;8.698;2023-02-15T05:46:07;4.00;99.90
997;DHT22;487;50.126;8.698;2023-02-15T05:48:35;4.00;99.90
997;DHT22;487;50.126;8.698;2023-02-15T05:51:05;2.90;99.90
997;DHT22;487;50.126;8.698;2023-02-15T05:53:36;4.00;99.90
997;DHT22;487;50.126;8.698;2023-02-15T05:56:05;4.00;99.90
997;DHT22;487;50.126;8.698;2023-02-15T05:58:34;4.00;99.90
997;DHT22;487;50.126;8.698;2023-02-15T06:01:07;3.90;99.90
997;DHT22;487;50.126;8.698;2023-02-15T06:03:36;3.90;99.90
997;DHT22;487;50.126;8.698;2023-02-15T06:06:05;3.90;99.90
997;DHT22;487;50.126;8.698;2023-02-15T06:08:34;3.90;99.90
997;DHT22;487;50.126;8.698;2023-02-15T06:11:02;4.00;99.90
997;DHT22;487;50.126;8.698;2023-02-15T06:13:30;3.90;99.90
997;DHT22;487;50.126;8.698;2023-02-15T06:15:59;3.90;99.90
997;DHT22;487;50.126;8.698;2023-02-15T06:18:27;4.00;99.90
997;DHT22;487;50.126;8.698;2023-02-15T06:20:55;3.90;99.90
997;DHT22;487;50.126;8.698;2023-02-15T06:23:24;3.90;99.90
997;DHT22;487;50.126;8.698;2023-02-15T06:25:52;3.90;99.90
997;DHT22;487;50.126;8.698;2023-02-15T06:28:20;4.00;99.90
997;DHT22;487;50.126;8.698;2023-02-15T06:30:47;3.90;99.90
997;DHT22;487;50.126;8.698;2023-02-15T06:33:15;3.90;99.90
997;DHT22;487;50.126;8.698;2023-02-15T06:35:44;3.90;99.90
997;DHT22;487;50.126;8.698;2023-02-15T06:38:12;3.90;99.90
997;DHT22;487;50.126;8.698;2023-02-15T06:40:41;4.00;99.90
997;DHT22;487;50.126;8.698;2023-02-15T06:43:09;4.00;99.90
997;DHT22;487;50.126;8.698;2023-02-15T06:45:37;4.00;99.90
997;DHT22;487;50.126;8.698;2023-02-15T06:48:05;4.00;99.90
997;DHT22;487;50.126;8.698;2023-02-15T06:50:34;4.00;99.90
997;DHT22;487;50.126;8.698;2023-02-15T06:53:02;4.00;99.90
997;DHT22;487;50.126;8.698;2023-02-15T06:55:30;4.00;99.90
997;DHT22;487;50.126;8.698;2023-02-15T06:57:59;4.00;99.90
997;DHT22;487;50.126;8.698;2023-02-15T07:00:27;4.00;99.90
997;DHT22;487;50.126;8.698;2023-02-15T07:02:55;4.00;99.90
997;DHT22;487;50.126;8.698;2023-02-15T07:05:24;4.00;99.90
997;DHT22;487;50.126;8.698;2023-02-15T07:07:57;4.00;99.90
997;DHT22;487;50.126;8.698;2023-02-15T07:10:25;4.00;99.90
997;DHT22;487;50.126;8.698;2023-02-15T07:12:53;4.00;99.90
997;DHT22;487;50.126;8.698;2023-02-15T07:15:21;4.00;99.90
997;DHT22;487;50.126;8.698;2023-02-15T07:17:50;4.00;99.90
997;DHT22;487;50.126;8.698;2023-02-15T07:20:19;4.00;99.90
997;DHT22;487;50.126;8.698;2023-02-15T07:22:48;4.00;99.90
997;DHT22;487;50.126;8.698;2023-02-15T07:25:17;4.00;99.90
997;DHT22;487;50.126;8.698;2023-02-15T07:27:45;3.90;99.90
997;DHT22;487;50.126;8.698;2023-02-15T07:30:15;3.90;99.90
997;DHT22;487;50.126;8.698;2023-02-15T07:32:45;3.90;99.90
997;DHT22;487;50.126;8.698;2023-02-15T07:35:31;3.80;99.90
997;DHT22;487;50.126;8.698;2023-02-15T07:37:59;3.80;99.90
997;DHT22;487;50.126;8.698;2023-02-15T07:40:27;3.80;99.90
997;DHT22;487;50.126;8.698;2023-02-15T07:42:57;3.70;99.90
997;DHT22;487;50.126;8.698;2023-02-15T07:45:26;3.80;99.90
997;DHT22;487;50.126;8.698;2023-02-15T07:47:55;3.70;99.90
997;DHT22;487;50.126;8.698;2023-02-15T07:50:23;4.50;99.90
997;DHT22;487;50.126;8.698;2023-02-15T07:52:50;3.50;99.90
997;DHT22;487;50.126;8.698;2023-02-15T07:55:18;3.70;99.90
997;DHT22;487;50.126;8.698;2023-02-15T07:57:48;3.60;99.90
997;DHT22;487;50.126;8.698;2023-02-15T08:00:18;3.60;99.90
997;DHT22;487;50.126;8.698;2023-02-15T08:02:50;3.70;99.90
997;DHT22;487;50.126;8.698;2023-02-15T08:05:42;3.80;99.90
997;DHT22;487;50.126;8.698;2023-02-15T08:08:11;3.80;99.90
997;DHT22;487;50.126;8.698;2023-02-15T08:10:58;3.80;99.90
997;DHT22;487;50.126;8.698;2023-02-15T08:13:44;3.80;99.90
997;DHT22;487;50.126;8.698;2023-02-15T08:16:25;3.80;99.90
997;DHT22;487;50.126;8.698;2023-02-15T08:18:54;3.70;99.90
997;DHT22;487;50.126;8.698;2023-02-15T08:21:26;3.70;99.90
997;DHT22;487;50.126;8.698;2023-02-15T08:23:54;3.70;99.90
997;DHT22;487;50.126;8.698;2023-02-15T08:26:22;3.60;99.90
997;DHT22;487;50.126;8.698;2023-02-15T08:28:50;3.60;99.90
997;DHT22;487;50.126;8.698;2023-02-15T08:31:19;3.60;99.90
997;DHT22;487;50.126;8.698;2023-02-15T08:33:49;3.60;99.90
997;DHT22;487;50.126;8.698;2023-02-15T08:36:19;3.60;99.90
997;DHT22;487;50.126;8.698;2023-02-15T08:38:49;3.60;99.90
997;DHT22;487;50.126;8.698;2023-02-15T08:41:18;3.70;99.90
997;DHT22;487;50.126;8.698;2023-02-15T08:43:47;3.70;99.90
997;DHT22;487;50.126;8.698;2023-02-15T08:46:16;3.80;99.90
997;DHT22;487;50.126;8.698;2023-02-15T08:48:45;3.80;99.90
997;DHT22;487;50.126;8.698;2023-02-15T08:51:14;3.70;99.90
997;DHT22;487;50.126;8.698;2023-02-15T08:53:44;3.70;99.90
997;DHT22;487;50.126;8.698;2023-02-15T08:56:13;3.70;99.90
997;DHT22;487;50.126;8.698;2023-02-15T08:58:41;3.50;99.90
997;DHT22;487;50.126;8.698;2023-02-15T09:01:10;3.60;99.90
997;DHT22;487;50.126;8.698;2023-02-15T09:03:38;3.60;99.90
997;DHT22;487;50.126;8.698;2023-02-15T09:06:06;3.60;99.90
997;DHT22;487;50.126;8.698;2023-02-15T09:08:34;3.50;99.90
997;DHT22;487;50.126;8.698;2023-02-15T09:11:07;3.60;99.90
997;DHT22;487;50.126;8.698;2023-02-15T09:13:37;3.60;99.90
997;DHT22;487;50.126;8.698;2023-02-15T09:16:07;3.60;99.90
997;DHT22;487;50.126;8.698;2023-02-15T09:18:38;3.60;99.90
997;DHT22;487;50.126;8.698;2023-02-15T09:21:08;3.60;99.90
997;DHT22;487;50.126;8.698;2023-02-15T09:23:36;3.60;99.90
997;DHT22;487;50.126;8.698;2023-02-15T09:26:06;3.60;99.90
997;DHT22;487;50.126;8.698;2023-02-15T09:28:34;3.60;99.90
997;DHT22;487;50.126;8.698;2023-02-15T09:31:09;3.70;99.90
997;DHT22;487;50.126;8.698;2023-02-15T09:33:38;3.70;99.90
997;DHT22;487;50.126;8.698;2023-02-15T09:36:16;3.70;99.90
997;DHT22;487;50.126;8.698;2023-02-15T09:38:44;3.70;99.90
997;DHT22;487;50.126;8.698;2023-02-15T09:44:13;3.80;99.90
997;DHT22;487;50.126;8.698;2023-02-15T09:47:10;3.90;99.90
997;DHT22;487;50.126;8.698;2023-02-15T09:49:49;3.80;99.90
997;DHT22;487;50.126;8.698;2023-02-15T09:52:39;3.80;99.90
997;DHT22;487;50.126;8.698;2023-02-15T09:55:30;3.80;99.90
997;DHT22;487;50.126;8.698;2023-02-15T09:58:07;3.70;99.90
997;DHT22;487;50.126;8.698;2023-02-15T10:00:46;3.70;99.90
997;DHT22;487;50.126;8.698;2023-02-15T10:03:32;3.70;99.90
997;DHT22;487;50.126;8.698;2023-02-15T10:06:16;3.70;99.90
997;DHT22;487;50.126;8.698;2023-02-15T10:08:56;3.70;99.90
997;DHT22;487;50.126;8.698;2023-02-15T10:11:36;3.60;99.90
997;DHT22;487;50.126;8.698;2023-02-15T10:14:19;4.80;99.90
997;DHT22;487;50.126;8.698;2023-02-15T10:16:56;3.70;99.90
997;DHT22;487;50.126;8.698;2023-02-15T10:19:36;3.80;99.90
997;DHT22;487;50.126;8.698;2023-02-15T10:22:20;3.80;99.90
997;DHT22;487;50.126;8.698;2023-02-15T10:25:05;3.80;99.90
997;DHT22;487;50.126;8.698;2023-02-15T10:27:42;3.90;99.90
997;DHT22;487;50.126;8.698;2023-02-15T10:30:13;3.90;99.90
997;DHT22;487;50.126;8.698;2023-02-15T10:32:49;3.70;99.90
997;DHT22;487;50.126;8.698;2023-02-15T10:35:26;3.50;99.90
997;DHT22;487;50.126;8.698;2023-02-15T10:40:53;3.60;99.90
997;DHT22;487;50.126;8.698;2023-02-15T10:43:47;3.60;99.90
997;DHT22;487;50.126;8.698;2023-02-15T10:46:25;3.50;99.90
997;DHT22;487;50.126;8.698;2023-02-15T10:49:16;3.20;99.90
997;DHT22;487;50.126;8.698;2023-02-15T10:51:59;3.00;99.90
997;DHT22;487;50.126;8.698;2023-02-15T10:54:37;3.10;99.90
997;DHT22;487;50.126;8.698;2023-02-15T10:57:14;3.20;99.90
997;DHT22;487;50.126;8.698;2023-02-15T11:00:08;3.30;99.90
997;DHT22;487;50.126;8.698;2023-02-15T11:02:49;3.60;99.90
997;DHT22;487;50.126;8.698;2023-02-15T11:05:29;3.70;99.90
997;DHT22;487;50.126;8.698;2023-02-15T11:08:03;3.70;99.90
997;DHT22;487;50.126;8.698;2023-02-15T11:10:36;3.90;99.90
997;DHT22;487;50.126;8.698;2023-02-15T11:13:09;3.90;99.90
997;DHT22;487;50.126;8.698;2023-02-15T11:15:41;3.90;99.90
997;DHT22;487;50.126;8.698;2023-02-15T11:18:14;4.00;99.90
997;DHT22;487;50.126;8.698;2023-02-15T11:20:49;4.20;99.90
997;DHT22;487;50.126;8.698;2023-02-15T11:23:21;4.30;99.90
997;DHT22;487;50.126;8.698;2023-02-15T11:25:55;4.30;99.90
997;DHT22;487;50.126;8.698;2023-02-15T11:28:27;4.40;99.90
997;DHT22;487;50.126;8.698;2023-02-15T11:30:58;4.40;99.90
997;DHT22;487;50.126;8.698;2023-02-15T11:33:30;4.40;99.90
997;DHT22;487;50.126;8.698;2023-02-15T11:36:03;4.40;99.90
997;DHT22;487;50.126;8.698;2023-02-15T11:38:35;4.40;99.90
997;DHT22;487;50.126;8.698;2023-02-15T11:41:09;4.50;99.90
997;DHT22;487;50.126;8.698;2023-02-15T11:43:41;4.50;99.90
997;DHT22;487;50.126;8.698;2023-02-15T11:46:12;4.40;99.90
997;DHT22;487;50.126;8.698;2023-02-15T11:48:41;4.40;99.90
997;DHT22;487;50.126;8.698;2023-02-15T11:51:13;4.40;99.90
997;DHT22;487;50.126;8.698;2023-02-15T11:53:45;4.40;99.90
997;DHT22;487;50.126;8.698;2023-02-15T11:56:14;4.40;99.90
997;DHT22;487;50.126;8.698;2023-02-15T11:58:45;4.40;99.90
997;DHT22;487;50.126;8.698;2023-02-15T12:01:18;4.40;99.90
997;DHT22;487;50.126;8.698;2023-02-15T12:03:48;4.40;99.90
997;DHT22;487;50.126;8.698;2023-02-15T12:06:21;4.50;99.90
997;DHT22;487;50.126;8.698;2023-02-15T12:08:57;4.60;99.90
997;DHT22;487;50.126;8.698;2023-02-15T12:11:32;4.50;99.90
997;DHT22;487;50.126;8.698;2023-02-15T12:14:03;4.30;99.90
997;DHT22;487;50.126;8.698;2023-02-15T12:16:39;4.30;99.90
997;DHT22;487;50.126;8.698;2023-02-15T12:21:54;4.30;99.90
997;DHT22;487;50.126;8.698;2023-02-15T12:24:27;4.30;99.90
997;DHT22;487;50.126;8.698;2023-02-15T12:26:57;4.30;99.90
997;DHT22;487;50.126;8.698;2023-02-15T12:29:28;4.30;99.90
997;DHT22;487;50.126;8.698;2023-02-15T12:31:57;4.30;99.90
997;DHT22;487;50.126;8.698;2023-02-15T12:34:29;4.40;99.90
997;DHT22;487;50.126;8.698;2023-02-15T12:37:02;4.40;99.90
997;DHT22;487;50.126;8.698;2023-02-15T12:39:37;4.50;99.90
997;DHT22;487;50.126;8.698;2023-02-15T12:42:14;4.60;99.90
997;DHT22;487;50.126;8.698;2023-02-15T12:44:54;4.60;99.90
997;DHT22;487;50.126;8.698;2023-02-15T12:47:22;4.70;99.90
997;DHT22;487;50.126;8.698;2023-02-15T12:50:10;4.70;99.90
997;DHT22;487;50.126;8.698;2023-02-15T12:52:44;4.80;99.90
997;DHT22;487;50.126;8.698;2023-02-15T12:55:26;4.80;99.90
997;DHT22;487;50.126;8.698;2023-02-15T12:58:06;4.80;99.90
997;DHT22;487;50.126;8.698;2023-02-15T13:00:34;5.00;99.90
997;DHT22;487;50.126;8.698;2023-02-15T13:03:03;5.00;99.90
997;DHT22;487;50.126;8.698;2023-02-15T13:05:34;5.00;99.90
997;DHT22;487;50.126;8.698;2023-02-15T13:08:09;4.90;99.90
997;DHT22;487;50.126;8.698;2023-02-15T13:10:52;5.00;99.90
997;DHT22;487;50.126;8.698;2023-02-15T13:13:24;5.00;99.90
997;DHT22;487;50.126;8.698;2023-02-15T13:15:54;5.00;99.90
997;DHT22;487;50.126;8.698;2023-02-15T13:18:30;5.00;99.90
997;DHT22;487;50.126;8.698;2023-02-15T13:21:09;5.10;99.90
997;DHT22;487;50.126;8.698;2023-02-15T13:23:38;5.10;99.90
997;DHT22;487;50.126;8.698;2023-02-15T13:26:14;5.10;99.90
997;DHT22;487;50.126;8.698;2023-02-15T13:28:46;5.20;99.90
997;DHT22;487;50.126;8.698;2023-02-15T13:31:15;5.20;99.90
997;DHT22;487;50.126;8.698;2023-02-15T13:33:48;5.20;99.90
997;DHT22;487;50.126;8.698;2023-02-15T13:36:23;5.30;99.90
997;DHT22;487;50.126;8.698;2023-02-15T13:39:01;5.30;99.90
997;DHT22;487;50.126;8.698;2023-02-15T13:41:33;5.30;99.90
997;DHT22;487;50.126;8.698;2023-02-15T13:44:12;5.30;99.90
997;DHT22;487;50.126;8.698;2023-02-15T13:46:56;5.30;99.90
997;DHT22;487;50.126;8.698;2023-02-15T13:49:35;5.40;99.90
997;DHT22;487;50.126;8.698;2023-02-15T13:52:16;5.40;99.90
997;DHT22;487;50.126;8.698;2023-02-15T13:55:06;5.40;99.90
997;DHT22;487;50.126;8.698;2023-02-15T13:57:54;5.50;99.90
997;DHT22;487;50.126;8.698;2023-02-15T14:00:28;5.40;99.90
997;DHT22;487;50.126;8.698;2023-02-15T14:03:14;5.40;97.90
997;DHT22;487;50.126;8.698;2023-02-15T14:06:01;5.40;99.90
997;DHT22;487;50.126;8.698;2023-02-15T14:08:45;5.40;99.90
997;DHT22;487;50.126;8.698;2023-02-15T14:11:21;5.40;96.90
997;DHT22;487;50.126;8.698;2023-02-15T14:14:11;5.40;99.90
997;DHT22;487;50.126;8.698;2023-02-15T14:16:48;5.30;99.90
997;DHT22;487;50.126;8.698;2023-02-15T14:19:37;5.40;99.90
997;DHT22;487;50.126;8.698;2023-02-15T14:22:12;5.40;97.60
997;DHT22;487;50.126;8.698;2023-02-15T14:24:46;5.40;99.90
997;DHT22;487;50.126;8.698;2023-02-15T14:27:23;5.40;99.90
997;DHT22;487;50.126;8.698;2023-02-15T14:29:56;5.40;99.90
997;DHT22;487;50.126;8.698;2023-02-15T14:32:29;5.40;97.30
997;DHT22;487;50.126;8.698;2023-02-15T14:35:00;5.40;99.90
997;DHT22;487;50.126;8.698;2023-02-15T14:37:39;5.30;99.90
997;DHT22;487;50.126;8.698;2023-02-15T14:40:16;5.30;99.90
997;DHT22;487;50.126;8.698;2023-02-15T14:43:08;5.20;98.50
997;DHT22;487;50.126;8.698;2023-02-15T14:45:45;5.20;99.90
997;DHT22;487;50.126;8.698;2023-02-15T14:48:19;5.10;99.90
997;DHT22;487;50.126;8.698;2023-02-15T14:50:48;5.20;99.90
997;DHT22;487;50.126;8.698;2023-02-15T14:53:40;5.20;99.90
997;DHT22;487;50.126;8.698;2023-02-15T14:56:21;5.20;99.90
997;DHT22;487;50.126;8.698;2023-02-15T14:58:59;5.20;99.90
997;DHT22;487;50.126;8.698;2023-02-15T15:01:31;5.20;99.90
997;DHT22;487;50.126;8.698;2023-02-15T15:04:02;6.30;99.90
997;DHT22;487;50.126;8.698;2023-02-15T15:06:32;5.20;99.90
997;DHT22;487;50.126;8.698;2023-02-15T15:11:41;5.20;99.90
997;DHT22;487;50.126;8.698;2023-02-15T15:16:55;5.20;99.90
997;DHT22;487;50.126;8.698;2023-02-15T15:22:32;5.20;99.90
997;DHT22;487;50.126;8.698;2023-02-15T15:25:00;5.20;99.90
997;DHT22;487;50.126;8.698;2023-02-15T15:27:48;5.20;99.90
997;DHT22;487;50.126;8.698;2023-02-15T15:42:51;5.20;99.90
997;DHT22;487;50.126;8.698;2023-02-15T15:45:46;5.20;99.90
997;DHT22;487;50.126;8.698;2023-02-15T15:51:02;5.20;99.90
997;DHT22;487;50.126;8.698;2023-02-15T15:53:34;5.20;99.90
997;DHT22;487;50.126;8.698;2023-02-15T15:56:11;5.20;99.90
997;DHT22;487;50.126;8.698;2023-02-15T15:58:43;5.20;99.90
997;DHT22;487;50.126;8.698;2023-02-15T16:01:12;5.10;99.90
997;DHT22;487;50.126;8.698;2023-02-15T16:03:49;5.10;99.90
997;DHT22;487;50.126;8.698;2023-02-15T16:06:30;5.10;99.90
997;DHT22;487;50.126;8.698;2023-02-15T16:09:10;5.10;99.90
997;DHT22;487;50.126;8.698;2023-02-15T16:11:38;5.00;99.90
997;DHT22;487;50.126;8.698;2023-02-15T16:14:12;5.00;99.90
997;DHT22;487;50.126;8.698;2023-02-15T16:16:40;5.00;99.90
997;DHT22;487;50.126;8.698;2023-02-15T16:19:20;5.00;99.90
997;DHT22;487;50.126;8.698;2023-02-15T16:21:51;5.00;99.90
997;DHT22;487;50.126;8.698;2023-02-15T16:24:24;5.00;99.90
997;DHT22;487;50.126;8.698;2023-02-15T16:29:57;4.90;99.90
997;DHT22;487;50.126;8.698;2023-02-15T16:32:27;5.00;99.90
997;DHT22;487;50.126;8.698;2023-02-15T16:34:56;4.90;99.90
997;DHT22;487;50.126;8.698;2023-02-15T16:37:27;4.90;99.90
997;DHT22;487;50.126;8.698;2023-02-15T16:39:56;4.90;99.90
997;DHT22;487;50.126;8.698;2023-02-15T16:42:24;4.80;99.90
997;DHT22;487;50.126;8.698;2023-02-15T16:44:55;4.70;99.90
997;DHT22;487;50.126;8.698;2023-02-15T16:47:25;4.70;99.90
997;DHT22;487;50.126;8.698;2023-02-15T16:49:55;4.70;99.90
997;DHT22;487;50.126;8.698;2023-02-15T16:52:27;4.70;99.90
997;DHT22;487;50.126;8.698;2023-02-15T16:54:58;4.80;99.90
997;DHT22;487;50.126;8.698;2023-02-15T16:57:29;4.80;99.90
997;DHT22;487;50.126;8.698;2023-02-15T17:00:02;4.80;99.90
997;DHT22;487;50.126;8.698;2023-02-15T17:02:32;4.60;99.90
997;DHT22;487;50.126;8.698;2023-02-15T17:05:21;4.60;99.90
997;DHT22;487;50.126;8.698;2023-02-15T17:08:05;4.60;99.90
997;DHT22;487;50.126;8.698;2023-02-15T17:10:35;4.70;99.90
997;DHT22;487;50.126;8.698;2023-02-15T17:13:09;3.90;99.90
997;DHT22;487;50.126;8.698;2023-02-15T17:15:39;4.60;99.90
997;DHT22;487;50.126;8.698;2023-02-15T17:18:16;4.60;99.90
997;DHT22;487;50.126;8.698;2023-02-15T17:20:47;4.40;99.90
997;DHT22;487;50.126;8.698;2023-02-15T17:23:25;4.40;99.90
997;DHT22;487;50.126;8.698;2023-02-15T17:25:54;4.20;99.90
997;DHT22;487;50.126;8.698;2023-02-15T17:28:24;4.10;99.90
997;DHT22;487;50.126;8.698;2023-02-15T17:30:54;4.00;99.90
997;DHT22;487;50.126;8.698;2023-02-15T17:33:24;4.00;99.90
997;DHT22;487;50.126;8.698;2023-02-15T17:36:07;3.90;99.90
997;DHT22;487;50.126;8.698;2023-02-15T17:38:38;3.90;99.90
997;DHT22;487;50.126;8.698;2023-02-15T17:41:07;3.80;99.90
997;DHT22;487;50.126;8.698;2023-02-15T17:43:35;3.80;99.90
997;DHT22;487;50.126;8.698;2023-02-15T17:46:03;3.80;99.90
997;DHT22;487;50.126;8.698;2023-02-15T17:48:33;3.60;99.90
997;DHT22;487;50.126;8.698;2023-02-15T17:51:03;3.60;99.90
997;DHT22;487;50.126;8.698;2023-02-15T17:53:32;3.60;99.90
997;DHT22;487;50.126;8.698;2023-02-15T17:56:02;3.50;99.90
997;DHT22;487;50.126;8.698;2023-02-15T17:58:36;3.50;99.90
997;DHT22;487;50.126;8.698;2023-02-15T18:01:07;3.50;99.90
997;DHT22;487;50.126;8.698;2023-02-15T18:03:56;3.50;99.90
997;DHT22;487;50.126;8.698;2023-02-15T18:06:43;3.60;99.90
997;DHT22;487;50.126;8.698;2023-02-15T18:09:29;3.50;99.90
997;DHT22;487;50.126;8.698;2023-02-15T18:12:19;3.40;99.90
997;DHT22;487;50.126;8.698;2023-02-15T18:14:47;3.50;99.90
997;DHT22;487;50.126;8.698;2023-02-15T18:17:16;3.50;99.90
997;DHT22;487;50.126;8.698;2023-02-15T18:19:45;3.60;99.90
997;DHT22;487;50.126;8.698;2023-02-15T18:22:15;3.60;99.90
997;DHT22;487;50.126;8.698;2023-02-15T18:24:43;3.60;99.90
997;DHT22;487;50.126;8.698;2023-02-15T18:27:12;3.70;99.90
997;DHT22;487;50.126;8.698;2023-02-15T18:29:42;3.80;99.90
997;DHT22;487;50.126;8.698;2023-02-15T18:32:17;3.90;99.90
997;DHT22;487;50.126;8.698;2023-02-15T18:34:46;3.90;99.90
997;DHT22;487;50.126;8.698;2023-02-15T18:37:17;4.00;99.90
997;DHT22;487;50.126;8.698;2023-02-15T18:39:47;4.00;99.90
997;DHT22;487;50.126;8.698;2023-02-15T18:42:20;4.10;99.90
997;DHT22;487;50.126;8.698;2023-02-15T18:44:53;4.10;99.90
997;DHT22;487;50.126;8.698;2023-02-15T18:47:21;4.10;99.90
997;DHT22;487;50.126;8.698;2023-02-15T18:49:49;4.10;99.90
997;DHT22;487;50.126;8.698;2023-02-15T18:52:20;4.10;99.90
997;DHT22;487;50.126;8.698;2023-02-15T18:54:51;4.10;99.90
997;DHT22;487;50.126;8.698;2023-02-15T18:57:20;4.10;99.90
997;DHT22;487;50.126;8.698;2023-02-15T18:59:49;4.10;99.90
997;DHT22;487;50.126;8.698;2023-02-15T19:02:17;4.10;99.90
997;DHT22;487;50.126;8.698;2023-02-15T19:04:46;4.10;99.90
997;DHT22;487;50.126;8.698;2023-02-15T19:07:16;4.10;99.90
997;DHT22;487;50.126;8.698;2023-02-15T19:09:48;4.10;99.90
997;DHT22;487;50.126;8.698;2023-02-15T19:12:17;4.10;99.90
997;DHT22;487;50.126;8.698;2023-02-15T19:14:45;4.10;99.90
997;DHT22;487;50.126;8.698;2023-02-15T19:17:16;4.10;99.90
997;DHT22;487;50.126;8.698;2023-02-15T19:19:45;4.10;99.90
997;DHT22;487;50.126;8.698;2023-02-15T19:22:14;4.10;99.90
997;DHT22;487;50.126;8.698;2023-02-15T19:24:44;4.20;99.90
997;DHT22;487;50.126;8.698;2023-02-15T19:27:19;4.20;99.90
997;DHT22;487;50.126;8.698;2023-02-15T19:29:49;4.20;99.90
997;DHT22;487;50.126;8.698;2023-02-15T19:32:18;4.20;99.90
997;DHT22;487;50.126;8.698;2023-02-15T19:34:46;4.20;99.90
997;DHT22;487;50.126;8.698;2023-02-15T19:37:22;4.20;99.90
997;DHT22;487;50.126;8.698;2023-02-15T19:39:51;4.20;99.90
997;DHT22;487;50.126;8.698;2023-02-15T19:42:22;4.20;99.90
997;DHT22;487;50.126;8.698;2023-02-15T19:47:21;4.10;99.90
997;DHT22;487;50.126;8.698;2023-02-15T19:49:49;4.10;99.90
997;DHT22;487;50.126;8.698;2023-02-15T19:52:18;4.00;99.90
997;DHT22;487;50.126;8.698;2023-02-15T19:54:49;4.00;99.90
997;DHT22;487;50.126;8.698;2023-02-15T19:57:17;4.00;99.90
997;DHT22;487;50.126;8.698;2023-02-15T19:59:46;4.00;99.90
997;DHT22;487;50.126;8.698;2023-02-15T20:02:14;4.00;99.90
997;DHT22;487;50.126;8.698;2023-02-15T20:04:46;4.00;99.90
997;DHT22;487;50.126;8.698;2023-02-15T20:07:20;4.10;99.90
997;DHT22;487;50.126;8.698;2023-02-15T20:09:49;4.10;99.90
997;DHT22;487;50.126;8.698;2023-02-15T20:12:19;3.90;99.90
997;DHT22;487;50.126;8.698;2023-02-15T20:14:48;3.90;99.90
997;DHT22;487;50.126;8.698;2023-02-15T20:17:16;3.80;99.90
997;DHT22;487;50.126;8.698;2023-02-15T20:19:43;3.70;99.90
997;DHT22;487;50.126;8.698;2023-02-15T20:22:20;3.60;99.90
997;DHT22;487;50.126;8.698;2023-02-15T20:24:50;3.70;99.90
997;DHT22;487;50.126;8.698;2023-02-15T20:27:21;3.70;99.90
997;DHT22;487;50.126;8.698;2023-02-15T20:29:49;3.70;99.90
997;DHT22;487;50.126;8.698;2023-02-15T20:32:17;3.70;99.90
997;DHT22;487;50.126;8.698;2023-02-15T20:34:45;3.80;99.90
997;DHT22;487;50.126;8.698;2023-02-15T20:37:21;5.00;99.90
997;DHT22;487;50.126;8.698;2023-02-15T20:39:51;3.80;99.90
997;DHT22;487;50.126;8.698;2023-02-15T20:42:19;3.90;99.90
997;DHT22;487;50.126;8.698;2023-02-15T20:44:47;3.90;99.90
997;DHT22;487;50.126;8.698;2023-02-15T20:47:15;4.00;99.90
997;DHT22;487;50.126;8.698;2023-02-15T20:49:43;4.00;99.90
997;DHT22;487;50.126;8.698;2023-02-15T20:52:17;4.00;99.90
997;DHT22;487;50.126;8.698;2023-02-15T20:54:47;4.10;99.90
997;DHT22;487;50.126;8.698;2023-02-15T20:59:44;4.10;99.90
997;DHT22;487;50.126;8.698;2023-02-15T21:02:16;4.10;99.90
997;DHT22;487;50.126;8.698;2023-02-15T21:04:45;4.10;99.90
997;DHT22;487;50.126;8.698;2023-02-15T21:07:14;4.20;99.90
997;DHT22;487;50.126;8.698;2023-02-15T21:09:43;4.20;99.90
997;DHT22;487;50.126;8.698;2023-02-15T21:12:13;4.20;99.90
997;DHT22;487;50.126;8.698;2023-02-15T21:14:42;4.20;99.90
997;DHT22;487;50.126;8.698;2023-02-15T21:17:11;4.20;99.90
997;DHT22;487;50.126;8.698;2023-02-15T21:19:39;4.20;99.90
997;DHT22;487;50.126;8.698;2023-02-15T21:22:10;4.20;99.90
997;DHT22;487;50.126;8.698;2023-02-15T21:24:38;4.20;99.90
997;DHT22;487;50.126;8.698;2023-02-15T21:27:13;4.20;99.90
997;DHT22;487;50.126;8.698;2023-02-15T21:29:41;4.20;99.90
997;DHT22;487;50.126;8.698;2023-02-15T21:32:09;4.30;99.90
997;DHT22;487;50.126;8.698;2023-02-15T21:37:24;4.30;99.90
997;DHT22;487;50.126;8.698;2023-02-15T21:39:52;4.30;99.90
997;DHT22;487;50.126;8.698;2023-02-15T21:42:22;4.30;99.90
997;DHT22;487;50.126;8.698;2023-02-15T21:45:13;4.10;99.90
997;DHT22;487;50.126;8.698;2023-02-15T21:48:01;4.00;99.90
997;DHT22;487;50.126;8.698;2023-02-15T21:50:28;4.00;99.90
997;DHT22;487;50.126;8.698;2023-02-15T21:53:19;4.00;99.90
997;DHT22;487;50.126;8.698;2023-02-15T21:55:48;4.00;99.90
997;DHT22;487;50.126;8.698;2023-02-15T21:58:20;3.90;99.90
997;DHT22;487;50.126;8.698;2023-02-15T22:00:49;3.70;99.90
997;DHT22;487;50.126;8.698;2023-02-15T22:03:21;3.70;99.90
997;DHT22;487;50.126;8.698;2023-02-15T22:05:49;3.70;99.90
997;DHT22;487;50.126;8.698;2023-02-15T22:08:17;3.80;99.90
997;DHT22;487;50.126;8.698;2023-02-15T22:10:46;3.80;99.90
997;DHT22;487;50.126;8.698;2023-02-15T22:13:16;3.80;99.90